Time;durP1;ratioP1;P1;durP2;ratioP2;P2;SDS_P1;SDS_P2;PMS_P1;PMS_P2;Temp;Humidity;BMP_temperature;BMP_pressure;BME280_temperature;BME280_humidity;BME280_pressure;Samples;Min_cycle;Max_cycle;Signal;HPM_P1;HPM_P2
2023/10/15 00:01:08;;;;;;;3.40;1.77;;;;;;;;;;5075569;28;20203;-66
2023/10/15 00:03:35;;;;;;;4.57;2.20;;;;;;;;;;5070534;28;20202;-67
2023/10/15 00:06:03;;;;;;;4.33;2.07;;;;;;;;;;5071537;28;20290;-67
2023/10/15 00:08:30;;;;;;;6.40;1.60;;;;;;;;;;5075350;28;20302;-66
2023/10/15 00:10:58;;;;;;;5.23;2.10;;;;;;;;;;5067369;28;20444;-66
2023/10/15 00:13:26;;;;;;;4.03;1.73;;;;;;;;;;5074672;28;20294;-65
2023/10/15 00:15:56;;;;;;;4.97;2.07;;;;;;;;;;5073058;28;20198;-66
2023/10/15 00:18:23;;;;;;;7.30;1.90;;;;;;;;;;5075240;28;20197;-67
2023/10/15 00:20:50;;;;;;;6.43;2.20;;;;;;;;;;5071230;28;20207;-67
2023/10/15 00:23:18;;;;;;;8.47;2.20;;;;;;;;;;5071075;28;20199;-65
2023/10/15 00:25:48;;;;;;;7.47;2.20;;;;;;;;;;5071393;28;20198;-65
2023/10/15 00:28:15;;;;;;;3.37;1.80;;;;;;;;;;5069905;28;20199;-65
2023/10/15 00:30:44;;;;;;;5.70;1.97;;;;;;;;;;5076556;28;20227;-72
2023/10/15 00:33:13;;;;;;;4.57;2.20;;;;;;;;;;5075932;28;20238;-72
2023/10/15 00:35:44;;;;;;;5.83;2.07;;;;;;;;;;5062974;28;20199;-71
2023/10/15 00:38:16;;;;;;;3.20;1.70;;;;;;;;;;5069000;28;20257;-72
2023/10/15 00:40:45;;;;;;;5.77;1.80;;;;;;;;;;5072886;28;20191;-72
2023/10/15 00:43:13;;;;;;;4.87;1.40;;;;;;;;;;5074059;28;20294;-71
2023/10/15 00:45:43;;;;;;;4.27;1.60;;;;;;;;;;5069799;28;20234;-71
2023/10/15 00:48:11;;;;;;;3.53;1.70;;;;;;;;;;5067397;28;20239;-70
2023/10/15 00:50:41;;;;;;;5.13;2.07;;;;;;;;;;5071385;28;20233;-70
2023/10/15 00:53:21;;;;;;;5.27;1.87;;;;;;;;;;5079736;28;20202;-71
2023/10/15 00:55:49;;;;;;;4.17;1.60;;;;;;;;;;5067395;28;20285;-71
2023/10/15 00:58:22;;;;;;;8.17;2.00;;;;;;;;;;5070083;28;20217;-71
2023/10/15 01:00:52;;;;;;;3.30;1.50;;;;;;;;;;5072749;28;20202;-72
2023/10/15 01:03:26;;;;;;;5.17;2.20;;;;;;;;;;5072347;28;20210;-71
2023/10/15 01:05:54;;;;;;;6.60;2.07;;;;;;;;;;5069136;28;20199;-70
2023/10/15 01:08:31;;;;;;;5.93;2.03;;;;;;;;;;5070674;28;20202;-71
2023/10/15 01:11:11;;;;;;;6.90;2.07;;;;;;;;;;5069850;28;20190;-71
2023/10/15 01:13:38;;;;;;;4.67;1.80;;;;;;;;;;5070505;28;20202;-71
2023/10/15 01:16:08;;;;;;;5.30;1.80;;;;;;;;;;5069377;28;20207;-72
2023/10/15 01:18:35;;;;;;;5.10;1.80;;;;;;;;;;5070006;28;20206;-72
2023/10/15 01:21:09;;;;;;;4.53;1.90;;;;;;;;;;5068037;28;20199;-71
2023/10/15 01:23:44;;;;;;;4.53;2.00;;;;;;;;;;5066087;28;20218;-72
2023/10/15 01:26:23;;;;;;;3.80;1.80;;;;;;;;;;5069046;28;20206;-70
2023/10/15 01:28:51;;;;;;;4.00;1.60;;;;;;;;;;5073763;28;20198;-70
2023/10/15 01:31:18;;;;;;;3.13;1.70;;;;;;;;;;5070787;28;20295;-70
2023/10/15 01:33:49;;;;;;;3.27;1.50;;;;;;;;;;5064425;28;20313;-71
2023/10/15 01:36:19;;;;;;;5.80;1.90;;;;;;;;;;5051412;28;20191;-71
2023/10/15 01:38:46;;;;;;;4.87;1.87;;;;;;;;;;5054766;28;20276;-66
2023/10/15 01:41:19;;;;;;;4.03;1.63;;;;;;;;;;5047417;28;20208;-66
2023/10/15 01:43:48;;;;;;;5.07;1.60;;;;;;;;;;5046977;28;20245;-66
2023/10/15 01:46:40;;;;;;;5.53;1.90;;;;;;;;;;5050899;28;20208;-66
2023/10/15 01:49:07;;;;;;;3.10;1.60;;;;;;;;;;5045867;28;20237;-65
2023/10/15 01:51:39;;;;;;;3.93;1.60;;;;;;;;;;5046779;28;20195;-66
2023/10/15 01:54:09;;;;;;;5.80;2.00;;;;;;;;;;5055753;28;20218;-66
2023/10/15 01:56:37;;;;;;;5.10;1.97;;;;;;;;;;5044245;28;20235;-66
2023/10/15 01:59:08;;;;;;;3.40;1.63;;;;;;;;;;5048013;28;20204;-65
2023/10/15 02:01:37;;;;;;;3.17;1.67;;;;;;;;;;5048858;28;20210;-65
2023/10/15 02:04:04;;;;;;;6.23;2.13;;;;;;;;;;5057527;28;20207;-66
2023/10/15 02:06:42;;;;;;;6.10;1.77;;;;;;;;;;5054477;28;20225;-66
2023/10/15 02:09:12;;;;;;;5.67;1.80;;;;;;;;;;5048955;28;20294;-67
2023/10/15 02:11:47;;;;;;;3.67;2.03;;;;;;;;;;5052835;28;20203;-66
2023/10/15 02:14:20;;;;;;;6.43;1.80;;;;;;;;;;5052278;28;20203;-67
2023/10/15 02:16:49;;;;;;;7.37;2.20;;;;;;;;;;5057680;28;20285;-66
2023/10/15 02:19:19;;;;;;;6.47;1.70;;;;;;;;;;5047739;28;20199;-66
2023/10/15 02:21:50;;;;;;;4.17;1.63;;;;;;;;;;5046275;28;20202;-66
2023/10/15 02:24:18;;;;;;;5.47;2.00;;;;;;;;;;5051976;28;20202;-65
2023/10/15 02:26:46;;;;;;;5.63;1.97;;;;;;;;;;5054624;28;20326;-67
2023/10/15 02:29:34;;;;;;;4.27;1.90;;;;;;;;;;5062853;28;20314;-66
2023/10/15 02:32:08;;;;;;;4.73;1.70;;;;;;;;;;5051473;28;20199;-66
2023/10/15 02:34:40;;;;;;;4.70;1.93;;;;;;;;;;5072442;28;20238;-66
2023/10/15 02:37:10;;;;;;;3.93;1.70;;;;;;;;;;5075119;28;20288;-66
2023/10/15 02:39:39;;;;;;;4.30;1.73;;;;;;;;;;5069847;28;20214;-66
2023/10/15 02:42:07;;;;;;;3.20;1.80;;;;;;;;;;5073074;28;20222;-66
2023/10/15 02:44:37;;;;;;;5.17;1.73;;;;;;;;;;5069038;28;20198;-68
2023/10/15 02:47:10;;;;;;;5.73;1.70;;;;;;;;;;5075491;28;20207;-66
2023/10/15 02:49:53;;;;;;;5.47;1.83;;;;;;;;;;5070894;28;20218;-66
2023/10/15 02:52:23;;;;;;;5.40;2.10;;;;;;;;;;5076387;28;20206;-66
2023/10/15 02:54:50;;;;;;;5.80;1.87;;;;;;;;;;5072401;28;20203;-66
2023/10/15 02:57:20;;;;;;;4.03;1.80;;;;;;;;;;5073507;28;20206;-66
2023/10/15 02:59:57;;;;;;;2.10;1.30;;;;;;;;;;5073665;28;20207;-65
2023/10/15 03:02:25;;;;;;;4.03;1.50;;;;;;;;;;5072236;28;20202;-65
2023/10/15 03:04:55;;;;;;;6.60;1.73;;;;;;;;;;5072058;28;20205;-65
2023/10/15 03:07:29;;;;;;;6.10;1.70;;;;;;;;;;5072004;28;20215;-67
2023/10/15 03:09:57;;;;;;;4.67;1.60;;;;;;;;;;5078716;28;20217;-69
2023/10/15 03:12:33;;;;;;;4.93;1.60;;;;;;;;;;5070030;28;20206;-67
2023/10/15 03:15:00;;;;;;;4.07;1.70;;;;;;;;;;5073454;28;20207;-66
2023/10/15 03:17:29;;;;;;;3.83;1.70;;;;;;;;;;5069495;28;20208;-68
2023/10/15 03:19:57;;;;;;;5.50;2.10;;;;;;;;;;5071278;28;20217;-69
2023/10/15 03:22:25;;;;;;;5.57;2.00;;;;;;;;;;5073300;28;20256;-67
2023/10/15 03:24:53;;;;;;;4.07;1.60;;;;;;;;;;5072816;28;20206;-68
2023/10/15 03:27:23;;;;;;;9.13;2.20;;;;;;;;;;5074786;28;20235;-67
2023/10/15 03:29:56;;;;;;;4.23;1.60;;;;;;;;;;5073870;28;20222;-66
2023/10/15 03:32:27;;;;;;;4.10;1.50;;;;;;;;;;5070903;28;20206;-66
2023/10/15 03:34:59;;;;;;;4.47;1.70;;;;;;;;;;5080435;28;20234;-66
2023/10/15 03:37:27;;;;;;;3.60;1.70;;;;;;;;;;5076041;28;20256;-65
2023/10/15 03:39:55;;;;;;;3.03;1.80;;;;;;;;;;5073609;28;20199;-66
2023/10/15 03:42:27;;;;;;;4.53;1.53;;;;;;;;;;5075724;28;20198;-66
2023/10/15 03:45:00;;;;;;;4.20;1.80;;;;;;;;;;5072290;28;20203;-65
2023/10/15 03:47:27;;;;;;;4.60;1.90;;;;;;;;;;5071341;28;20202;-66
2023/10/15 03:49:55;;;;;;;5.87;1.87;;;;;;;;;;5071476;28;20229;-65
2023/10/15 03:52:23;;;;;;;4.00;1.70;;;;;;;;;;5073131;28;20293;-66
2023/10/15 03:54:50;;;;;;;5.43;1.60;;;;;;;;;;5073863;28;20205;-65
2023/10/15 03:57:18;;;;;;;4.73;1.60;;;;;;;;;;5080776;28;20203;-66
2023/10/15 03:59:52;;;;;;;3.57;1.77;;;;;;;;;;5069287;28;20248;-66
2023/10/15 04:02:26;;;;;;;4.07;1.70;;;;;;;;;;5070896;28;20214;-67
2023/10/15 04:05:00;;;;;;;6.07;1.93;;;;;;;;;;5083106;28;20210;-66
2023/10/15 04:07:30;;;;;;;4.77;1.67;;;;;;;;;;5074809;28;20234;-67
2023/10/15 04:09:58;;;;;;;2.60;1.70;;;;;;;;;;5075026;28;20233;-66
2023/10/15 04:12:27;;;;;;;1.90;1.30;;;;;;;;;;5075926;28;20202;-66
2023/10/15 04:14:55;;;;;;;3.33;1.43;;;;;;;;;;5071210;28;20194;-67
2023/10/15 04:17:23;;;;;;;3.47;1.90;;;;;;;;;;5070320;28;20206;-66
2023/10/15 04:19:50;;;;;;;4.17;1.73;;;;;;;;;;5073902;28;20211;-66
2023/10/15 04:22:17;;;;;;;4.10;1.60;;;;;;;;;;5071223;28;20210;-66
2023/10/15 04:24:46;;;;;;;7.63;1.57;;;;;;;;;;5074752;28;20206;-66
2023/10/15 04:27:16;;;;;;;6.13;1.90;;;;;;;;;;5070011;28;20203;-67
2023/10/15 04:29:50;;;;;;;5.00;1.77;;;;;;;;;;5072533;28;20199;-67
2023/10/15 04:32:28;;;;;;;4.27;1.67;;;;;;;;;;5073100;28;20197;-66
2023/10/15 04:35:01;;;;;;;2.90;1.40;;;;;;;;;;5077121;28;20233;-67
2023/10/15 04:37:29;;;;;;;2.43;1.50;;;;;;;;;;5071236;28;20230;-68
2023/10/15 04:39:58;;;;;;;3.03;1.27;;;;;;;;;;5067382;28;20199;-66
2023/10/15 04:42:35;;;;;;;3.67;1.50;;;;;;;;;;5072523;28;20234;-66
2023/10/15 04:45:03;;;;;;;4.07;1.70;;;;;;;;;;5076042;28;20248;-66
2023/10/15 04:47:38;;;;;;;3.23;1.50;;;;;;;;;;5071376;28;20426;-66
2023/10/15 04:50:14;;;;;;;4.93;1.73;;;;;;;;;;5069070;28;20222;-65
2023/10/15 04:52:42;;;;;;;2.73;1.40;;;;;;;;;;5075544;28;20247;-66
2023/10/15 04:55:10;;;;;;;3.87;1.40;;;;;;;;;;5070706;28;20211;-66
2023/10/15 04:57:39;;;;;;;4.40;1.77;;;;;;;;;;5068763;28;20203;-66
2023/10/15 05:00:07;;;;;;;3.43;1.50;;;;;;;;;;5070298;28;20199;-67
2023/10/15 05:02:34;;;;;;;5.40;1.63;;;;;;;;;;5080147;28;20214;-66
2023/10/15 05:05:02;;;;;;;4.30;1.57;;;;;;;;;;5083250;28;20605;-66
2023/10/15 05:07:31;;;;;;;2.77;1.60;;;;;;;;;;5071225;28;20226;-65
2023/10/15 05:09:59;;;;;;;2.77;1.40;;;;;;;;;;5074856;28;20216;-72
2023/10/15 05:12:28;;;;;;;3.43;1.80;;;;;;;;;;5078215;28;20199;-71
2023/10/15 05:14:55;;;;;;;2.47;1.30;;;;;;;;;;5072613;28;20236;-72
2023/10/15 05:17:22;;;;;;;3.90;1.73;;;;;;;;;;5070012;28;20203;-71
2023/10/15 05:19:53;;;;;;;3.70;1.57;;;;;;;;;;5068454;28;20207;-72
2023/10/15 05:22:20;;;;;;;2.87;1.50;;;;;;;;;;5069465;28;20199;-72
2023/10/15 05:24:49;;;;;;;3.13;1.50;;;;;;;;;;5071909;28;20273;-72
2023/10/15 05:27:16;;;;;;;4.00;1.57;;;;;;;;;;5070876;28;20206;-72
2023/10/15 05:29:44;;;;;;;3.57;1.70;;;;;;;;;;5070681;28;20290;-72
2023/10/15 05:32:11;;;;;;;5.27;1.60;;;;;;;;;;5068266;28;20230;-71
2023/10/15 05:34:39;;;;;;;3.73;1.40;;;;;;;;;;5062855;28;20227;-71
2023/10/15 05:37:06;;;;;;;3.20;1.50;;;;;;;;;;5055905;28;20203;-71
2023/10/15 05:39:33;;;;;;;3.13;1.77;;;;;;;;;;5057081;28;20213;-72
2023/10/15 05:42:06;;;;;;;4.23;1.80;;;;;;;;;;5054606;28;20205;-72
2023/10/15 05:44:34;;;;;;;3.07;1.43;;;;;;;;;;5053123;28;20208;-72
2023/10/15 05:47:01;;;;;;;3.07;1.80;;;;;;;;;;5047702;28;20590;-71
2023/10/15 05:49:28;;;;;;;5.90;1.97;;;;;;;;;;5055194;28;20199;-72
2023/10/15 05:51:55;;;;;;;3.20;1.60;;;;;;;;;;5056657;28;20224;-71
2023/10/15 05:54:22;;;;;;;3.23;1.60;;;;;;;;;;5051640;28;20230;-72
2023/10/15 05:56:49;;;;;;;5.17;1.60;;;;;;;;;;5051116;28;20208;-71
2023/10/15 05:59:18;;;;;;;3.97;1.63;;;;;;;;;;5052622;28;20255;-72
2023/10/15 06:01:46;;;;;;;2.80;1.23;;;;;;;;;;5047776;28;20236;-71
2023/10/15 06:04:13;;;;;;;2.27;1.30;;;;;;;;;;5052189;28;20210;-72
2023/10/15 06:06:41;;;;;;;2.97;1.40;;;;;;;;;;5046646;28;20203;-73
2023/10/15 06:09:11;;;;;;;2.70;1.47;;;;;;;;;;5054551;28;20381;-72
2023/10/15 06:11:38;;;;;;;2.90;1.70;;;;;;;;;;5056178;28;20280;-72
2023/10/15 06:14:05;;;;;;;4.07;1.67;;;;;;;;;;5057540;28;20203;-72
2023/10/15 06:16:34;;;;;;;4.03;1.53;;;;;;;;;;5060287;28;20199;-72
2023/10/15 06:19:01;;;;;;;4.87;1.70;;;;;;;;;;5050367;28;20207;-66
2023/10/15 06:21:28;;;;;;;3.60;1.40;;;;;;;;;;5055311;28;20199;-66
2023/10/15 06:23:55;;;;;;;3.10;1.47;;;;;;;;;;5051576;28;20207;-67
2023/10/15 06:26:23;;;;;;;2.93;1.30;;;;;;;;;;5053323;28;20286;-67
2023/10/15 06:28:50;;;;;;;2.53;1.43;;;;;;;;;;5048290;28;20250;-66
2023/10/15 06:31:17;;;;;;;3.30;1.50;;;;;;;;;;5044722;28;20219;-67
2023/10/15 06:33:46;;;;;;;3.77;1.47;;;;;;;;;;5056291;28;20226;-67
2023/10/15 06:36:14;;;;;;;3.97;1.50;;;;;;;;;;5072713;28;20213;-66
2023/10/15 06:38:42;;;;;;;4.87;1.70;;;;;;;;;;5072137;28;20228;-66
2023/10/15 06:41:10;;;;;;;3.10;1.27;;;;;;;;;;5063026;28;20203;-66
2023/10/15 06:43:37;;;;;;;6.23;1.60;;;;;;;;;;5068126;28;20209;-67
2023/10/15 06:46:07;;;;;;;2.73;1.40;;;;;;;;;;5065687;28;20225;-67
2023/10/15 06:48:34;;;;;;;4.53;1.50;;;;;;;;;;5067005;28;20199;-68
2023/10/15 06:51:04;;;;;;;5.23;1.57;;;;;;;;;;5069161;28;20226;-68
2023/10/15 06:53:32;;;;;;;4.93;1.50;;;;;;;;;;5067412;28;20209;-67
2023/10/15 06:55:59;;;;;;;5.40;1.40;;;;;;;;;;5069378;28;20214;-67
2023/10/15 06:58:28;;;;;;;4.27;1.50;;;;;;;;;;5068199;28;20209;-66
2023/10/15 07:00:55;;;;;;;5.40;1.43;;;;;;;;;;5063595;28;20226;-67
2023/10/15 07:03:23;;;;;;;4.27;1.80;;;;;;;;;;5067111;28;20199;-66
2023/10/15 07:05:50;;;;;;;3.83;1.37;;;;;;;;;;5065164;28;20195;-66
2023/10/15 07:08:19;;;;;;;3.67;1.60;;;;;;;;;;5068436;28;20199;-65
2023/10/15 07:10:46;;;;;;;2.17;1.20;;;;;;;;;;5066528;28;20349;-65
2023/10/15 07:13:13;;;;;;;3.83;1.63;;;;;;;;;;5073586;28;20471;-65
2023/10/15 07:15:41;;;;;;;4.43;1.77;;;;;;;;;;5065909;28;20214;-67
2023/10/15 07:18:08;;;;;;;3.30;1.50;;;;;;;;;;5073284;28;20199;-66
2023/10/15 07:20:36;;;;;;;3.07;1.30;;;;;;;;;;5072467;28;20203;-66
2023/10/15 07:23:03;;;;;;;4.57;1.43;;;;;;;;;;5070033;28;20202;-66
2023/10/15 07:25:32;;;;;;;4.90;1.60;;;;;;;;;;5066232;28;20297;-66
2023/10/15 07:27:59;;;;;;;6.83;1.60;;;;;;;;;;5069727;28;20195;-66
2023/10/15 07:30:27;;;;;;;4.93;1.60;;;;;;;;;;5068324;28;20201;-71
2023/10/15 07:32:57;;;;;;;3.57;1.60;;;;;;;;;;5065192;28;20316;-70
2023/10/15 07:35:25;;;;;;;3.60;1.50;;;;;;;;;;5048101;28;20235;-71
2023/10/15 07:37:53;;;;;;;3.07;1.43;;;;;;;;;;5055933;28;20202;-70
2023/10/15 07:40:21;;;;;;;3.07;1.50;;;;;;;;;;5044112;28;20214;-71
2023/10/15 07:42:50;;;;;;;3.13;1.50;;;;;;;;;;5054306;28;20199;-71
2023/10/15 07:45:18;;;;;;;5.60;1.57;;;;;;;;;;5055610;28;20203;-73
2023/10/15 07:47:45;;;;;;;2.47;1.60;;;;;;;;;;5052382;28;20316;-72
2023/10/15 07:50:14;;;;;;;4.60;1.90;;;;;;;;;;5047237;28;20335;-71
2023/10/15 07:52:41;;;;;;;4.83;1.40;;;;;;;;;;5040994;28;20223;-72
2023/10/15 07:55:10;;;;;;;4.53;1.93;;;;;;;;;;5045973;28;20202;-72
2023/10/15 07:57:38;;;;;;;3.90;1.50;;;;;;;;;;5045990;28;20212;-71
2023/10/15 08:00:08;;;;;;;3.50;1.47;;;;;;;;;;5049149;28;20204;-71
2023/10/15 08:02:36;;;;;;;2.20;1.20;;;;;;;;;;5058760;28;20202;-72
2023/10/15 08:05:04;;;;;;;3.63;1.57;;;;;;;;;;5048867;28;20298;-73
2023/10/15 08:07:31;;;;;;;2.20;1.40;;;;;;;;;;5056443;28;20286;-72
2023/10/15 08:09:58;;;;;;;3.70;1.20;;;;;;;;;;5052059;28;20518;-72
2023/10/15 08:12:27;;;;;;;3.43;1.47;;;;;;;;;;5052407;28;20231;-73
2023/10/15 08:14:57;;;;;;;3.43;1.30;;;;;;;;;;5046684;28;20208;-71
2023/10/15 08:17:26;;;;;;;4.60;1.60;;;;;;;;;;5046748;28;20269;-71
2023/10/15 08:19:54;;;;;;;3.97;1.73;;;;;;;;;;5052839;28;20194;-72
2023/10/15 08:22:21;;;;;;;4.03;1.50;;;;;;;;;;5049418;28;20195;-71
2023/10/15 08:24:48;;;;;;;3.87;1.63;;;;;;;;;;5052769;28;20214;-71
2023/10/15 08:27:15;;;;;;;4.20;1.73;;;;;;;;;;5044566;28;20274;-71
2023/10/15 08:29:43;;;;;;;4.37;1.60;;;;;;;;;;5047296;28;20207;-70
2023/10/15 08:32:16;;;;;;;3.23;1.30;;;;;;;;;;5047240;28;20223;-71
2023/10/15 08:34:45;;;;;;;3.27;1.60;;;;;;;;;;5065747;28;20262;-71
2023/10/15 08:37:12;;;;;;;2.97;1.60;;;;;;;;;;5063961;28;20207;-72
2023/10/15 08:39:39;;;;;;;3.20;1.40;;;;;;;;;;5065965;28;20205;-66
2023/10/15 08:42:11;;;;;;;4.40;1.53;;;;;;;;;;5067656;28;20211;-66
2023/10/15 08:44:40;;;;;;;4.43;1.40;;;;;;;;;;5057503;28;20268;-67
2023/10/15 08:47:10;;;;;;;4.63;1.53;;;;;;;;;;5062981;28;20206;-66
2023/10/15 08:49:37;;;;;;;3.87;1.60;;;;;;;;;;5066455;28;20211;-66
2023/10/15 08:52:07;;;;;;;3.60;1.60;;;;;;;;;;5066998;28;20222;-66
2023/10/15 08:54:38;;;;;;;3.10;1.50;;;;;;;;;;5066809;28;20195;-67
2023/10/15 08:57:06;;;;;;;3.73;1.47;;;;;;;;;;5069140;28;20198;-67
2023/10/15 08:59:34;;;;;;;2.73;1.60;;;;;;;;;;5066919;28;20207;-69
2023/10/15 09:02:02;;;;;;;5.60;1.60;;;;;;;;;;5062914;28;20499;-66
2023/10/15 09:04:29;;;;;;;2.53;1.37;;;;;;;;;;5065126;28;20285;-66
2023/10/15 09:07:01;;;;;;;2.07;1.50;;;;;;;;;;5067085;28;20208;-67
2023/10/15 09:09:29;;;;;;;5.40;1.60;;;;;;;;;;5068502;28;20273;-66
2023/10/15 09:11:57;;;;;;;3.23;1.60;;;;;;;;;;5069750;28;20237;-66
2023/10/15 09:14:37;;;;;;;3.27;1.40;;;;;;;;;;5066316;28;20203;-66
2023/10/15 09:17:09;;;;;;;2.43;1.30;;;;;;;;;;5070675;28;20209;-66
2023/10/15 09:19:36;;;;;;;4.00;1.63;;;;;;;;;;5071145;28;20233;-68
2023/10/15 09:22:03;;;;;;;1.93;1.43;;;;;;;;;;5068206;28;20199;-67
2023/10/15 09:24:32;;;;;;;4.20;1.50;;;;;;;;;;5066036;28;20298;-66
2023/10/15 09:26:59;;;;;;;3.33;1.60;;;;;;;;;;5070552;28;20211;-66
2023/10/15 09:29:30;;;;;;;2.10;1.40;;;;;;;;;;5074105;28;20294;-67
2023/10/15 09:32:01;;;;;;;2.10;1.17;;;;;;;;;;5067828;28;20218;-68
2023/10/15 09:34:29;;;;;;;2.97;1.17;;;;;;;;;;5066740;28;20313;-67
2023/10/15 09:36:58;;;;;;;3.20;1.20;;;;;;;;;;5066546;28;20199;-67
2023/10/15 09:39:26;;;;;;;3.10;1.50;;;;;;;;;;5070535;28;20225;-65
2023/10/15 09:41:56;;;;;;;3.93;1.30;;;;;;;;;;5068816;28;20225;-66
2023/10/15 09:44:23;;;;;;;1.53;1.20;;;;;;;;;;5061190;28;20290;-66
2023/10/15 09:46:50;;;;;;;1.47;1.10;;;;;;;;;;5060761;28;20209;-65
2023/10/15 09:49:18;;;;;;;4.80;1.33;;;;;;;;;;5069557;28;20206;-66
2023/10/15 09:51:47;;;;;;;2.57;1.17;;;;;;;;;;5067832;28;20226;-65
2023/10/15 09:54:19;;;;;;;1.87;1.20;;;;;;;;;;5067064;28;20211;-66
2023/10/15 09:56:47;;;;;;;1.93;0.97;;;;;;;;;;5064873;28;20206;-64
2023/10/15 09:59:15;;;;;;;2.53;1.07;;;;;;;;;;5061765;28;20229;-65
2023/10/15 10:01:45;;;;;;;1.97;1.13;;;;;;;;;;5069661;28;20199;-66
2023/10/15 10:04:40;;;;;;;2.37;0.90;;;;;;;;;;5065022;28;20229;-66
2023/10/15 10:07:14;;;;;;;0.87;0.83;;;;;;;;;;5063820;28;20274;-65
2023/10/15 10:09:51;;;;;;;3.73;1.00;;;;;;;;;;5062559;28;20203;-64
2023/10/15 10:12:24;;;;;;;1.30;0.90;;;;;;;;;;5075198;28;20222;-65
2023/10/15 10:15:10;;;;;;;2.03;0.90;;;;;;;;;;5068051;28;20195;-64
2023/10/15 10:17:38;;;;;;;2.63;1.00;;;;;;;;;;5068332;28;20200;-66
2023/10/15 10:20:10;;;;;;;1.60;0.90;;;;;;;;;;5067458;28;20316;-67
2023/10/15 10:22:38;;;;;;;3.80;1.20;;;;;;;;;;5070195;28;20186;-66
2023/10/15 10:25:05;;;;;;;2.40;1.13;;;;;;;;;;5070629;28;20218;-66
2023/10/15 10:27:41;;;;;;;3.50;1.07;;;;;;;;;;5066754;28;20206;-66
2023/10/15 10:30:23;;;;;;;2.10;1.07;;;;;;;;;;5071423;28;20220;-65
2023/10/15 10:32:51;;;;;;;1.83;1.40;;;;;;;;;;5066074;28;20219;-65
2023/10/15 10:35:20;;;;;;;2.97;1.40;;;;;;;;;;5070274;28;20199;-64
2023/10/15 10:38:02;;;;;;;4.27;1.77;;;;;;;;;;5065271;28;20270;-65
2023/10/15 10:40:49;;;;;;;3.00;1.43;;;;;;;;;;5064956;28;20252;-66
2023/10/15 10:43:16;;;;;;;3.90;1.40;;;;;;;;;;5063614;28;20187;-66
2023/10/15 10:45:53;;;;;;;2.87;1.07;;;;;;;;;;5066553;28;20209;-65
2023/10/15 10:48:21;;;;;;;2.20;1.20;;;;;;;;;;5063537;28;20198;-65
2023/10/15 10:50:49;;;;;;;2.27;0.90;;;;;;;;;;5069134;28;20202;-66
2023/10/15 10:53:18;;;;;;;4.73;2.50;;;;;;;;;;5067761;28;20206;-64
2023/10/15 10:55:45;;;;;;;1.10;1.00;;;;;;;;;;5061124;28;20207;-65
2023/10/15 10:58:24;;;;;;;3.17;1.77;;;;;;;;;;5070491;28;20199;-66
2023/10/15 11:00:53;;;;;;;1.90;1.20;;;;;;;;;;5058582;28;20207;-70
2023/10/15 11:03:20;;;;;;;3.43;1.70;;;;;;;;;;5071494;28;20210;-70
2023/10/15 11:05:48;;;;;;;2.50;1.27;;;;;;;;;;5073348;28;20228;-71
2023/10/15 11:08:18;;;;;;;2.40;1.20;;;;;;;;;;5078263;28;20207;-71
2023/10/15 11:10:47;;;;;;;2.20;0.93;;;;;;;;;;5063778;28;20203;-70
2023/10/15 11:13:15;;;;;;;2.07;0.90;;;;;;;;;;5067301;28;20257;-71
2023/10/15 11:15:43;;;;;;;2.07;0.90;;;;;;;;;;5069114;28;20476;-70
2023/10/15 11:18:11;;;;;;;2.10;0.93;;;;;;;;;;5076597;28;20208;-69
2023/10/15 11:20:39;;;;;;;2.40;1.00;;;;;;;;;;5071379;28;20203;-69
2023/10/15 11:23:06;;;;;;;4.43;0.97;;;;;;;;;;5071783;28;20294;-70
2023/10/15 11:25:35;;;;;;;3.87;1.03;;;;;;;;;;5069355;28;20206;-70
2023/10/15 11:28:06;;;;;;;2.67;1.07;;;;;;;;;;5070983;28;20233;-69
2023/10/15 11:30:34;;;;;;;2.00;0.90;;;;;;;;;;5067417;28;20221;-69
2023/10/15 11:33:01;;;;;;;5.40;1.03;;;;;;;;;;5065837;28;20234;-69
2023/10/15 11:35:33;;;;;;;2.60;1.23;;;;;;;;;;5049152;28;20205;-70
2023/10/15 11:38:00;;;;;;;1.43;1.10;;;;;;;;;;5050888;28;20202;-69
2023/10/15 11:40:29;;;;;;;1.80;1.10;;;;;;;;;;5045824;28;20235;-71
2023/10/15 11:42:56;;;;;;;2.30;1.00;;;;;;;;;;5045080;28;20199;-70
2023/10/15 11:45:30;;;;;;;1.73;0.97;;;;;;;;;;5043862;28;20214;-70
2023/10/15 11:47:57;;;;;;;1.73;0.80;;;;;;;;;;5047226;28;20200;-71
2023/10/15 11:50:24;;;;;;;1.63;0.80;;;;;;;;;;5043677;28;20235;-70
2023/10/15 11:52:53;;;;;;;2.93;1.00;;;;;;;;;;5050353;28;20231;-71
2023/10/15 11:55:22;;;;;;;1.47;1.03;;;;;;;;;;5046793;28;20203;-71
2023/10/15 11:57:50;;;;;;;3.43;1.10;;;;;;;;;;5050639;28;20210;-70
2023/10/15 12:00:23;;;;;;;1.73;1.00;;;;;;;;;;5048956;28;20227;-70
2023/10/15 12:02:51;;;;;;;2.20;1.50;;;;;;;;;;5051292;28;20203;-68
2023/10/15 12:05:20;;;;;;;2.73;0.90;;;;;;;;;;5047427;28;20199;-69
2023/10/15 12:07:48;;;;;;;6.20;1.30;;;;;;;;;;5054885;28;20203;-69
2023/10/15 12:10:16;;;;;;;1.30;0.90;;;;;;;;;;5047322;28;20208;-68
2023/10/15 12:12:44;;;;;;;3.37;1.10;;;;;;;;;;5041606;28;20246;-69
2023/10/15 12:15:12;;;;;;;3.25;1.52;;;;;;;;;;5044654;28;20210;-68
2023/10/15 12:17:39;;;;;;;6.60;1.83;;;;;;;;;;5048143;28;20207;-68
2023/10/15 12:20:07;;;;;;;1.57;1.00;;;;;;;;;;5051809;28;20197;-67
2023/10/15 12:22:34;;;;;;;3.13;1.37;;;;;;;;;;5050697;28;20208;-69
2023/10/15 12:25:01;;;;;;;3.97;1.27;;;;;;;;;;5046811;28;20203;-69
2023/10/15 12:27:30;;;;;;;2.33;1.10;;;;;;;;;;5047238;28;20204;-68
2023/10/15 12:30:03;;;;;;;2.30;1.10;;;;;;;;;;5043287;28;20207;-69
2023/10/15 12:32:30;;;;;;;4.80;1.50;;;;;;;;;;5037421;28;20316;-69
2023/10/15 12:34:57;;;;;;;3.30;1.30;;;;;;;;;;5060811;28;20235;-69
2023/10/15 12:37:29;;;;;;;2.07;1.20;;;;;;;;;;5061413;28;20217;-69
2023/10/15 12:39:57;;;;;;;2.40;1.37;;;;;;;;;;5055506;28;20285;-69
2023/10/15 12:42:24;;;;;;;1.83;1.10;;;;;;;;;;5065655;28;20250;-67
2023/10/15 12:44:53;;;;;;;2.83;1.40;;;;;;;;;;5063074;28;20201;-68
2023/10/15 12:47:21;;;;;;;2.60;1.30;;;;;;;;;;5059923;28;20210;-67
2023/10/15 12:49:48;;;;;;;2.30;1.40;;;;;;;;;;5058693;28;20207;-68
2023/10/15 12:52:15;;;;;;;1.97;1.13;;;;;;;;;;5059485;28;20204;-68
2023/10/15 12:54:42;;;;;;;1.57;1.10;;;;;;;;;;5061390;28;20214;-68
2023/10/15 12:57:09;;;;;;;4.20;1.70;;;;;;;;;;5060937;28;20202;-68
2023/10/15 12:59:36;;;;;;;4.17;1.50;;;;;;;;;;5061924;28;20209;-69
2023/10/15 13:02:05;;;;;;;2.93;1.20;;;;;;;;;;5059628;28;20210;-67
2023/10/15 13:04:32;;;;;;;2.50;1.40;;;;;;;;;;5054813;28;20289;-68
2023/10/15 13:06:59;;;;;;;2.43;1.37;;;;;;;;;;5060266;28;20294;-67
2023/10/15 13:09:32;;;;;;;2.70;1.37;;;;;;;;;;5060888;28;20257;-68
2023/10/15 13:12:01;;;;;;;3.27;1.40;;;;;;;;;;5063083;28;20242;-68
2023/10/15 13:14:28;;;;;;;2.83;1.50;;;;;;;;;;5059577;28;20230;-67
2023/10/15 13:16:56;;;;;;;4.93;1.67;;;;;;;;;;5056589;28;20213;-68
2023/10/15 13:19:26;;;;;;;3.57;2.10;;;;;;;;;;5054522;28;20217;-68
2023/10/15 13:21:53;;;;;;;3.80;1.40;;;;;;;;;;5055045;28;20209;-69
2023/10/15 13:24:20;;;;;;;3.30;1.50;;;;;;;;;;5068715;28;20205;-68
2023/10/15 13:26:47;;;;;;;4.47;1.67;;;;;;;;;;5053766;28;20208;-68
2023/10/15 13:29:14;;;;;;;3.77;1.70;;;;;;;;;;5058366;28;20218;-67
2023/10/15 13:31:42;;;;;;;3.10;1.57;;;;;;;;;;5056812;28;20257;-68
2023/10/15 13:34:09;;;;;;;3.87;1.57;;;;;;;;;;5074551;28;20234;-70
2023/10/15 13:36:37;;;;;;;3.87;2.37;;;;;;;;;;5087324;28;20217;-70
2023/10/15 13:39:05;;;;;;;3.03;1.73;;;;;;;;;;5090728;28;20212;-70
2023/10/15 13:41:33;;;;;;;4.67;2.30;;;;;;;;;;5088770;28;20205;-68
2023/10/15 13:44:00;;;;;;;2.30;1.40;;;;;;;;;;5078827;28;20293;-68
2023/10/15 13:46:27;;;;;;;3.30;1.00;;;;;;;;;;5069483;28;20209;-69
2023/10/15 13:48:54;;;;;;;2.60;1.67;;;;;;;;;;5071392;28;20217;-68
2023/10/15 13:51:22;;;;;;;5.50;2.10;;;;;;;;;;5073403;28;20206;-69
2023/10/15 13:53:51;;;;;;;2.30;1.30;;;;;;;;;;5070901;28;20219;-68
2023/10/15 13:56:19;;;;;;;4.27;1.60;;;;;;;;;;5069883;28;20194;-69
2023/10/15 13:58:47;;;;;;;2.20;1.17;;;;;;;;;;5070105;28;20304;-70
2023/10/15 14:01:15;;;;;;;3.90;1.70;;;;;;;;;;5069587;28;20213;-69
2023/10/15 14:03:43;;;;;;;1.60;1.13;;;;;;;;;;5069949;28;20203;-70
2023/10/15 14:06:11;;;;;;;2.43;1.47;;;;;;;;;;5073964;28;20203;-69
2023/10/15 14:08:39;;;;;;;2.93;1.33;;;;;;;;;;5071594;28;20206;-69
2023/10/15 14:11:10;;;;;;;7.70;2.60;;;;;;;;;;5070764;28;20293;-70
2023/10/15 14:13:37;;;;;;;2.47;1.33;;;;;;;;;;5063928;28;20227;-69
2023/10/15 14:16:04;;;;;;;5.23;1.60;;;;;;;;;;5070777;28;20209;-70
2023/10/15 14:18:31;;;;;;;3.00;1.20;;;;;;;;;;5071656;28;20206;-69
2023/10/15 14:20:58;;;;;;;4.60;1.93;;;;;;;;;;5075487;28;20207;-69
2023/10/15 14:23:26;;;;;;;4.27;2.57;;;;;;;;;;5074589;28;20202;-69
2023/10/15 14:25:53;;;;;;;2.87;1.30;;;;;;;;;;5076298;28;20207;-69
2023/10/15 14:28:22;;;;;;;3.93;1.40;;;;;;;;;;5071274;28;20213;-71
2023/10/15 14:30:50;;;;;;;1.93;1.03;;;;;;;;;;5075826;28;20211;-70
2023/10/15 14:33:17;;;;;;;1.47;0.80;;;;;;;;;;5074379;28;20265;-70
2023/10/15 14:35:44;;;;;;;1.00;0.90;;;;;;;;;;5075222;28;20252;-68
2023/10/15 14:38:11;;;;;;;1.70;0.73;;;;;;;;;;5077206;28;20195;-69
2023/10/15 14:40:39;;;;;;;2.57;1.10;;;;;;;;;;5082346;28;20205;-68
2023/10/15 14:43:06;;;;;;;2.10;1.10;;;;;;;;;;5076037;28;20268;-70
2023/10/15 14:45:36;;;;;;;1.80;1.00;;;;;;;;;;5079404;28;20253;-69
2023/10/15 14:48:04;;;;;;;1.17;0.80;;;;;;;;;;5079682;28;20215;-69
2023/10/15 14:50:31;;;;;;;1.77;0.80;;;;;;;;;;5076311;28;20214;-68
2023/10/15 14:52:59;;;;;;;1.20;0.90;;;;;;;;;;5073954;28;20218;-68
2023/10/15 14:55:26;;;;;;;1.73;0.80;;;;;;;;;;5074346;28;20260;-68